sensor_id;sensor_type;location;lat;lon;timestamp;temperature;humidity
39315;DHT22;28703;44.412;11.918;2023-09-30T00:02:12;18.70;92.60
39315;DHT22;28703;44.412;11.918;2023-09-30T00:04:38;18.70;92.70
39315;DHT22;28703;44.412;11.918;2023-09-30T00:07:04;18.70;92.70
39315;DHT22;28703;44.412;11.918;2023-09-30T00:09:31;18.70;92.80
39315;DHT22;28703;44.412;11.918;2023-09-30T00:11:57;18.70;92.70
39315;DHT22;28703;44.412;11.918;2023-09-30T00:14:23;18.70;92.70
39315;DHT22;28703;44.412;11.918;2023-09-30T00:16:49;18.70;92.70
39315;DHT22;28703;44.412;11.918;2023-09-30T00:19:16;18.70;92.60
39315;DHT22;28703;44.412;11.918;2023-09-30T00:21:42;18.70;92.50
39315;DHT22;28703;44.412;11.918;2023-09-30T00:24:08;18.60;92.40
39315;DHT22;28703;44.412;11.918;2023-09-30T00:26:35;18.60;92.40
39315;DHT22;28703;44.412;11.918;2023-09-30T00:29:01;18.60;92.50
39315;DHT22;28703;44.412;11.918;2023-09-30T00:31:30;18.50;92.50
39315;DHT22;28703;44.412;11.918;2023-09-30T00:33:57;18.50;92.50
39315;DHT22;28703;44.412;11.918;2023-09-30T00:36:23;18.50;92.40
39315;DHT22;28703;44.412;11.918;2023-09-30T00:38:49;18.40;92.30
39315;DHT22;28703;44.412;11.918;2023-09-30T00:41:15;18.40;92.50
39315;DHT22;28703;44.412;11.918;2023-09-30T00:43:41;18.40;92.50
39315;DHT22;28703;44.412;11.918;2023-09-30T00:48:43;18.40;92.70
39315;DHT22;28703;44.412;11.918;2023-09-30T00:51:09;18.40;92.80
39315;DHT22;28703;44.412;11.918;2023-09-30T00:53:35;18.30;92.60
39315;DHT22;28703;44.412;11.918;2023-09-30T00:56:01;18.30;92.60
39315;DHT22;28703;44.412;11.918;2023-09-30T00:58:28;18.30;92.50
39315;DHT22;28703;44.412;11.918;2023-09-30T01:00:56;18.20;92.60
39315;DHT22;28703;44.412;11.918;2023-09-30T01:03:23;18.20;92.50
39315;DHT22;28703;44.412;11.918;2023-09-30T01:05:49;18.20;92.70
39315;DHT22;28703;44.412;11.918;2023-09-30T01:08:16;18.10;92.40
39315;DHT22;28703;44.412;11.918;2023-09-30T01:10:44;18.10;92.40
39315;DHT22;28703;44.412;11.918;2023-09-30T01:13:10;18.10;92.40
39315;DHT22;28703;44.412;11.918;2023-09-30T01:15:36;18.00;92.30
39315;DHT22;28703;44.412;11.918;2023-09-30T01:18:03;18.00;92.40
39315;DHT22;28703;44.412;11.918;2023-09-30T01:20:30;18.00;92.40
39315;DHT22;28703;44.412;11.918;2023-09-30T01:22:57;17.90;92.50
39315;DHT22;28703;44.412;11.918;2023-09-30T01:25:24;17.90;92.50
39315;DHT22;28703;44.412;11.918;2023-09-30T01:27:50;17.90;92.60
39315;DHT22;28703;44.412;11.918;2023-09-30T01:30:17;17.80;92.60
39315;DHT22;28703;44.412;11.918;2023-09-30T01:32:44;17.80;92.80
39315;DHT22;28703;44.412;11.918;2023-09-30T01:35:09;17.80;93.00
39315;DHT22;28703;44.412;11.918;2023-09-30T01:37:38;17.80;93.10
39315;DHT22;28703;44.412;11.918;2023-09-30T01:40:04;17.80;93.10
39315;DHT22;28703;44.412;11.918;2023-09-30T01:42:34;17.80;93.20
39315;DHT22;28703;44.412;11.918;2023-09-30T01:45:02;17.80;93.20
39315;DHT22;28703;44.412;11.918;2023-09-30T01:47:28;17.80;93.40
39315;DHT22;28703;44.412;11.918;2023-09-30T01:49:54;17.80;93.40
39315;DHT22;28703;44.412;11.918;2023-09-30T01:52:20;17.80;93.40
39315;DHT22;28703;44.412;11.918;2023-09-30T01:54:47;17.80;93.60
39315;DHT22;28703;44.412;11.918;2023-09-30T01:57:13;17.80;93.60
39315;DHT22;28703;44.412;11.918;2023-09-30T01:59:39;17.80;93.50
39315;DHT22;28703;44.412;11.918;2023-09-30T02:02:05;17.80;93.40
39315;DHT22;28703;44.412;11.918;2023-09-30T02:04:31;17.80;93.30
39315;DHT22;28703;44.412;11.918;2023-09-30T02:06:57;17.80;93.30
39315;DHT22;28703;44.412;11.918;2023-09-30T02:09:23;17.80;93.30
39315;DHT22;28703;44.412;11.918;2023-09-30T02:11:49;17.80;93.20
39315;DHT22;28703;44.412;11.918;2023-09-30T02:14:15;17.70;93.10
39315;DHT22;28703;44.412;11.918;2023-09-30T02:16:41;17.70;93.00
39315;DHT22;28703;44.412;11.918;2023-09-30T02:19:07;17.60;92.90
39315;DHT22;28703;44.412;11.918;2023-09-30T02:21:36;17.70;93.00
39315;DHT22;28703;44.412;11.918;2023-09-30T02:24:02;17.60;93.10
39315;DHT22;28703;44.412;11.918;2023-09-30T02:26:28;17.60;93.10
39315;DHT22;28703;44.412;11.918;2023-09-30T02:28:54;17.50;93.20
39315;DHT22;28703;44.412;11.918;2023-09-30T02:31:21;17.50;93.10
39315;DHT22;28703;44.412;11.918;2023-09-30T02:33:47;17.50;93.20
39315;DHT22;28703;44.412;11.918;2023-09-30T02:36:13;17.40;93.20
39315;DHT22;28703;44.412;11.918;2023-09-30T02:38:39;17.40;93.30
39315;DHT22;28703;44.412;11.918;2023-09-30T02:41:05;17.40;93.20
39315;DHT22;28703;44.412;11.918;2023-09-30T02:43:31;17.40;93.20
39315;DHT22;28703;44.412;11.918;2023-09-30T02:45:58;17.30;93.10
39315;DHT22;28703;44.412;11.918;2023-09-30T02:48:23;17.30;93.10
39315;DHT22;28703;44.412;11.918;2023-09-30T02:50:49;17.30;93.00
39315;DHT22;28703;44.412;11.918;2023-09-30T02:53:15;17.20;92.80
39315;DHT22;28703;44.412;11.918;2023-09-30T02:55:41;17.20;92.70
39315;DHT22;28703;44.412;11.918;2023-09-30T02:58:11;17.10;92.80
39315;DHT22;28703;44.412;11.918;2023-09-30T03:00:37;17.10;92.80
39315;DHT22;28703;44.412;11.918;2023-09-30T03:03:04;17.00;92.80
39315;DHT22;28703;44.412;11.918;2023-09-30T03:05:30;17.00;92.90
39315;DHT22;28703;44.412;11.918;2023-09-30T03:08:00;17.00;93.10
39315;DHT22;28703;44.412;11.918;2023-09-30T03:10:26;17.00;93.40
39315;DHT22;28703;44.412;11.918;2023-09-30T03:12:53;16.90;93.40
39315;DHT22;28703;44.412;11.918;2023-09-30T03:15:19;16.90;93.50
39315;DHT22;28703;44.412;11.918;2023-09-30T03:17:45;16.90;93.60
39315;DHT22;28703;44.412;11.918;2023-09-30T03:20:11;16.90;93.60
39315;DHT22;28703;44.412;11.918;2023-09-30T03:22:41;16.90;93.70
39315;DHT22;28703;44.412;11.918;2023-09-30T03:25:12;17.00;93.80
39315;DHT22;28703;44.412;11.918;2023-09-30T03:27:38;17.00;93.70
39315;DHT22;28703;44.412;11.918;2023-09-30T03:30:08;17.00;93.60
39315;DHT22;28703;44.412;11.918;2023-09-30T03:32:34;16.90;93.30
39315;DHT22;28703;44.412;11.918;2023-09-30T03:35:02;16.90;93.20
39315;DHT22;28703;44.412;11.918;2023-09-30T03:37:29;16.90;93.30
39315;DHT22;28703;44.412;11.918;2023-09-30T03:39:57;16.90;93.50
39315;DHT22;28703;44.412;11.918;2023-09-30T03:42:23;16.90;93.50
39315;DHT22;28703;44.412;11.918;2023-09-30T03:44:49;16.90;93.40
39315;DHT22;28703;44.412;11.918;2023-09-30T03:47:16;16.80;93.30
39315;DHT22;28703;44.412;11.918;2023-09-30T03:49:42;16.80;93.20
39315;DHT22;28703;44.412;11.918;2023-09-30T03:52:09;16.80;93.30
39315;DHT22;28703;44.412;11.918;2023-09-30T03:54:35;16.70;93.30
39315;DHT22;28703;44.412;11.918;2023-09-30T03:57:01;16.70;93.30
39315;DHT22;28703;44.412;11.918;2023-09-30T03:59:29;16.70;93.30
39315;DHT22;28703;44.412;11.918;2023-09-30T04:01:56;16.60;93.30
39315;DHT22;28703;44.412;11.918;2023-09-30T04:04:24;16.60;93.40
39315;DHT22;28703;44.412;11.918;2023-09-30T04:06:51;16.60;93.40
39315;DHT22;28703;44.412;11.918;2023-09-30T04:09:17;16.50;93.50
39315;DHT22;28703;44.412;11.918;2023-09-30T04:11:43;16.50;93.50
39315;DHT22;28703;44.412;11.918;2023-09-30T04:14:09;16.50;93.50
39315;DHT22;28703;44.412;11.918;2023-09-30T04:16:36;16.50;93.70
39315;DHT22;28703;44.412;11.918;2023-09-30T04:19:03;16.50;94.00
39315;DHT22;28703;44.412;11.918;2023-09-30T04:21:29;16.50;94.00
39315;DHT22;28703;44.412;11.918;2023-09-30T04:23:59;16.50;94.00
39315;DHT22;28703;44.412;11.918;2023-09-30T04:26:25;16.60;94.10
39315;DHT22;28703;44.412;11.918;2023-09-30T04:28:51;16.50;94.10
39315;DHT22;28703;44.412;11.918;2023-09-30T04:31:19;16.50;94.30
39315;DHT22;28703;44.412;11.918;2023-09-30T04:33:47;16.50;94.40
39315;DHT22;28703;44.412;11.918;2023-09-30T04:36:13;16.50;94.30
39315;DHT22;28703;44.412;11.918;2023-09-30T04:38:39;16.60;94.20
39315;DHT22;28703;44.412;11.918;2023-09-30T04:41:05;16.50;94.10
39315;DHT22;28703;44.412;11.918;2023-09-30T04:43:33;16.50;94.10
39315;DHT22;28703;44.412;11.918;2023-09-30T04:46:00;16.50;94.10
39315;DHT22;28703;44.412;11.918;2023-09-30T04:48:27;16.50;94.10
39315;DHT22;28703;44.412;11.918;2023-09-30T04:50:53;16.50;94.10
39315;DHT22;28703;44.412;11.918;2023-09-30T04:53:20;16.50;94.20
39315;DHT22;28703;44.412;11.918;2023-09-30T04:55:49;16.50;94.20
39315;DHT22;28703;44.412;11.918;2023-09-30T04:58:17;16.40;94.20
39315;DHT22;28703;44.412;11.918;2023-09-30T05:00:43;16.40;94.20
39315;DHT22;28703;44.412;11.918;2023-09-30T05:03:09;16.40;94.20
39315;DHT22;28703;44.412;11.918;2023-09-30T05:05:34;16.40;94.20
39315;DHT22;28703;44.412;11.918;2023-09-30T05:08:01;16.40;94.30
39315;DHT22;28703;44.412;11.918;2023-09-30T05:10:27;16.30;94.30
39315;DHT22;28703;44.412;11.918;2023-09-30T05:12:53;16.40;94.30
39315;DHT22;28703;44.412;11.918;2023-09-30T05:15:21;16.40;94.30
39315;DHT22;28703;44.412;11.918;2023-09-30T05:17:48;16.40;94.40
39315;DHT22;28703;44.412;11.918;2023-09-30T05:20:14;16.30;94.30
39315;DHT22;28703;44.412;11.918;2023-09-30T05:22:43;16.30;94.20
39315;DHT22;28703;44.412;11.918;2023-09-30T05:25:12;16.30;94.10
39315;DHT22;28703;44.412;11.918;2023-09-30T05:27:38;16.20;94.00
39315;DHT22;28703;44.412;11.918;2023-09-30T05:30:05;16.20;94.00
39315;DHT22;28703;44.412;11.918;2023-09-30T05:32:32;16.20;94.00
39315;DHT22;28703;44.412;11.918;2023-09-30T05:35:00;16.20;94.10
39315;DHT22;28703;44.412;11.918;2023-09-30T05:37:28;16.20;94.30
39315;DHT22;28703;44.412;11.918;2023-09-30T05:39:54;16.20;94.40
39315;DHT22;28703;44.412;11.918;2023-09-30T05:42:20;16.30;94.50
39315;DHT22;28703;44.412;11.918;2023-09-30T05:44:47;16.30;94.60
39315;DHT22;28703;44.412;11.918;2023-09-30T05:47:14;16.30;94.70
39315;DHT22;28703;44.412;11.918;2023-09-30T05:49:41;16.30;94.70
39315;DHT22;28703;44.412;11.918;2023-09-30T05:52:07;16.40;94.80
39315;DHT22;28703;44.412;11.918;2023-09-30T05:54:33;16.40;94.70
39315;DHT22;28703;44.412;11.918;2023-09-30T05:56:59;16.50;94.80
39315;DHT22;28703;44.412;11.918;2023-09-30T05:59:27;16.50;94.90
39315;DHT22;28703;44.412;11.918;2023-09-30T06:01:53;16.50;95.00
39315;DHT22;28703;44.412;11.918;2023-09-30T06:04:19;16.50;94.90
39315;DHT22;28703;44.412;11.918;2023-09-30T06:06:46;16.50;95.00
39315;DHT22;28703;44.412;11.918;2023-09-30T06:09:12;16.60;95.00
39315;DHT22;28703;44.412;11.918;2023-09-30T06:11:38;16.60;95.20
39315;DHT22;28703;44.412;11.918;2023-09-30T06:14:07;16.60;95.10
39315;DHT22;28703;44.412;11.918;2023-09-30T06:16:33;16.60;95.10
39315;DHT22;28703;44.412;11.918;2023-09-30T06:19:00;16.70;95.20
39315;DHT22;28703;44.412;11.918;2023-09-30T06:21:26;16.70;95.10
39315;DHT22;28703;44.412;11.918;2023-09-30T06:23:55;16.80;95.20
39315;DHT22;28703;44.412;11.918;2023-09-30T06:26:21;16.80;95.20
39315;DHT22;28703;44.412;11.918;2023-09-30T06:28:47;16.90;95.20
39315;DHT22;28703;44.412;11.918;2023-09-30T06:31:14;16.90;95.20
39315;DHT22;28703;44.412;11.918;2023-09-30T06:33:40;17.00;95.10
39315;DHT22;28703;44.412;11.918;2023-09-30T06:36:10;17.00;95.10
39315;DHT22;28703;44.412;11.918;2023-09-30T06:38:37;17.10;95.00
39315;DHT22;28703;44.412;11.918;2023-09-30T06:41:03;17.10;95.10
39315;DHT22;28703;44.412;11.918;2023-09-30T06:43:29;17.20;95.00
39315;DHT22;28703;44.412;11.918;2023-09-30T06:45:55;17.20;95.00
39315;DHT22;28703;44.412;11.918;2023-09-30T06:48:21;17.30;95.10
39315;DHT22;28703;44.412;11.918;2023-09-30T06:50:48;17.30;95.30
39315;DHT22;28703;44.412;11.918;2023-09-30T06:53:18;17.40;95.10
39315;DHT22;28703;44.412;11.918;2023-09-30T06:55:45;17.50;95.10
39315;DHT22;28703;44.412;11.918;2023-09-30T06:58:11;17.50;95.00
39315;DHT22;28703;44.412;11.918;2023-09-30T07:00:38;17.60;95.10
39315;DHT22;28703;44.412;11.918;2023-09-30T07:03:04;17.60;95.00
39315;DHT22;28703;44.412;11.918;2023-09-30T07:05:30;17.70;95.00
39315;DHT22;28703;44.412;11.918;2023-09-30T07:07:56;17.80;95.00
39315;DHT22;28703;44.412;11.918;2023-09-30T07:10:22;17.80;95.00
39315;DHT22;28703;44.412;11.918;2023-09-30T07:12:48;17.90;94.90
39315;DHT22;28703;44.412;11.918;2023-09-30T07:15:14;18.00;94.90
39315;DHT22;28703;44.412;11.918;2023-09-30T07:17:40;18.00;94.90
39315;DHT22;28703;44.412;11.918;2023-09-30T07:20:07;18.10;94.90
39315;DHT22;28703;44.412;11.918;2023-09-30T07:22:33;18.20;94.90
39315;DHT22;28703;44.412;11.918;2023-09-30T07:24:59;18.20;94.90
39315;DHT22;28703;44.412;11.918;2023-09-30T07:27:25;18.30;94.90
39315;DHT22;28703;44.412;11.918;2023-09-30T07:29:51;18.40;94.80
39315;DHT22;28703;44.412;11.918;2023-09-30T07:32:17;18.50;94.70
39315;DHT22;28703;44.412;11.918;2023-09-30T07:34:43;18.60;94.70
39315;DHT22;28703;44.412;11.918;2023-09-30T07:37:09;18.60;94.60
39315;DHT22;28703;44.412;11.918;2023-09-30T07:39:35;18.70;94.60
39315;DHT22;28703;44.412;11.918;2023-09-30T07:42:02;18.80;94.60
39315;DHT22;28703;44.412;11.918;2023-09-30T07:44:27;18.90;94.50
39315;DHT22;28703;44.412;11.918;2023-09-30T07:46:53;18.90;94.50
39315;DHT22;28703;44.412;11.918;2023-09-30T07:49:19;19.00;94.50
39315;DHT22;28703;44.412;11.918;2023-09-30T07:51:45;19.10;94.50
39315;DHT22;28703;44.412;11.918;2023-09-30T07:54:12;19.20;94.40
39315;DHT22;28703;44.412;11.918;2023-09-30T07:56:38;19.20;94.40
39315;DHT22;28703;44.412;11.918;2023-09-30T07:59:04;19.30;94.50
39315;DHT22;28703;44.412;11.918;2023-09-30T08:01:31;19.40;94.50
39315;DHT22;28703;44.412;11.918;2023-09-30T08:03:57;19.50;94.50
39315;DHT22;28703;44.412;11.918;2023-09-30T08:06:23;19.60;94.40
39315;DHT22;28703;44.412;11.918;2023-09-30T08:08:49;19.60;94.20
39315;DHT22;28703;44.412;11.918;2023-09-30T08:11:17;19.70;94.00
39315;DHT22;28703;44.412;11.918;2023-09-30T08:13:43;19.80;93.90
39315;DHT22;28703;44.412;11.918;2023-09-30T08:16:09;19.80;93.80
39315;DHT22;28703;44.412;11.918;2023-09-30T08:18:35;19.90;93.60
39315;DHT22;28703;44.412;11.918;2023-09-30T08:21:01;20.00;93.30
39315;DHT22;28703;44.412;11.918;2023-09-30T08:23:26;20.00;93.30
39315;DHT22;28703;44.412;11.918;2023-09-30T08:25:52;20.10;93.20
39315;DHT22;28703;44.412;11.918;2023-09-30T08:28:19;20.20;93.00
39315;DHT22;28703;44.412;11.918;2023-09-30T08:30:45;20.30;93.20
39315;DHT22;28703;44.412;11.918;2023-09-30T08:33:12;20.40;93.10
39315;DHT22;28703;44.412;11.918;2023-09-30T08:35:38;20.40;93.10
39315;DHT22;28703;44.412;11.918;2023-09-30T08:38:04;20.50;92.90
39315;DHT22;28703;44.412;11.918;2023-09-30T08:40:30;20.60;92.90
39315;DHT22;28703;44.412;11.918;2023-09-30T08:42:56;20.70;92.80
39315;DHT22;28703;44.412;11.918;2023-09-30T08:45:23;20.70;92.60
39315;DHT22;28703;44.412;11.918;2023-09-30T08:47:50;20.70;92.60
39315;DHT22;28703;44.412;11.918;2023-09-30T08:50:17;20.80;92.50
39315;DHT22;28703;44.412;11.918;2023-09-30T08:52:44;20.90;92.40
39315;DHT22;28703;44.412;11.918;2023-09-30T08:55:11;21.00;92.40
39315;DHT22;28703;44.412;11.918;2023-09-30T08:57:39;21.10;92.30
39315;DHT22;28703;44.412;11.918;2023-09-30T09:00:07;21.10;92.20
39315;DHT22;28703;44.412;11.918;2023-09-30T09:02:37;21.20;92.20
39315;DHT22;28703;44.412;11.918;2023-09-30T09:05:03;21.30;92.10
39315;DHT22;28703;44.412;11.918;2023-09-30T09:07:30;21.30;92.20
39315;DHT22;28703;44.412;11.918;2023-09-30T09:12:31;21.40;92.10
39315;DHT22;28703;44.412;11.918;2023-09-30T09:14:57;21.50;92.20
39315;DHT22;28703;44.412;11.918;2023-09-30T09:17:23;21.60;92.20
39315;DHT22;28703;44.412;11.918;2023-09-30T09:20:01;21.70;92.10
39315;DHT22;28703;44.412;11.918;2023-09-30T09:22:43;21.70;92.10
39315;DHT22;28703;44.412;11.918;2023-09-30T09:25:10;21.80;91.90
39315;DHT22;28703;44.412;11.918;2023-09-30T09:27:36;21.80;91.90
39315;DHT22;28703;44.412;11.918;2023-09-30T09:30:17;21.80;91.80
39315;DHT22;28703;44.412;11.918;2023-09-30T09:32:53;21.90;91.70
39315;DHT22;28703;44.412;11.918;2023-09-30T09:35:23;22.00;91.70
39315;DHT22;28703;44.412;11.918;2023-09-30T09:37:55;22.00;91.60
39315;DHT22;28703;44.412;11.918;2023-09-30T09:40:23;22.00;91.30
39315;DHT22;28703;44.412;11.918;2023-09-30T09:42:52;22.10;91.20
39315;DHT22;28703;44.412;11.918;2023-09-30T09:45:24;22.10;91.00
39315;DHT22;28703;44.412;11.918;2023-09-30T09:47:51;22.20;90.90
39315;DHT22;28703;44.412;11.918;2023-09-30T09:50:21;22.20;90.60
39315;DHT22;28703;44.412;11.918;2023-09-30T09:52:48;22.30;90.50
39315;DHT22;28703;44.412;11.918;2023-09-30T09:55:35;22.30;90.50
39315;DHT22;28703;44.412;11.918;2023-09-30T09:58:02;22.40;90.00
39315;DHT22;28703;44.412;11.918;2023-09-30T10:00:29;22.40;90.30
39315;DHT22;28703;44.412;11.918;2023-09-30T10:02:57;22.40;90.30
39315;DHT22;28703;44.412;11.918;2023-09-30T10:05:22;22.50;90.30
39315;DHT22;28703;44.412;11.918;2023-09-30T10:08:03;22.60;90.30
39315;DHT22;28703;44.412;11.918;2023-09-30T10:10:31;22.60;90.10
39315;DHT22;28703;44.412;11.918;2023-09-30T10:13:01;22.70;90.10
39315;DHT22;28703;44.412;11.918;2023-09-30T10:18:04;22.70;89.80
39315;DHT22;28703;44.412;11.918;2023-09-30T10:20:32;22.80;88.30
39315;DHT22;28703;44.412;11.918;2023-09-30T10:25:42;22.90;88.10
39315;DHT22;28703;44.412;11.918;2023-09-30T10:28:40;22.90;88.60
39315;DHT22;28703;44.412;11.918;2023-09-30T10:31:19;23.00;86.60
39315;DHT22;28703;44.412;11.918;2023-09-30T10:36:35;23.10;86.00
39315;DHT22;28703;44.412;11.918;2023-09-30T10:39:02;23.10;85.90
39315;DHT22;28703;44.412;11.918;2023-09-30T10:49:46;23.40;83.90
39315;DHT22;28703;44.412;11.918;2023-09-30T10:52:21;23.40;82.90
39315;DHT22;28703;44.412;11.918;2023-09-30T10:54:49;23.40;84.40
39315;DHT22;28703;44.412;11.918;2023-09-30T10:57:27;23.50;84.40
39315;DHT22;28703;44.412;11.918;2023-09-30T11:00:11;23.60;83.90
39315;DHT22;28703;44.412;11.918;2023-09-30T11:02:51;23.70;82.70
39315;DHT22;28703;44.412;11.918;2023-09-30T11:05:19;23.70;83.40
39315;DHT22;28703;44.412;11.918;2023-09-30T11:07:48;23.80;83.60
39315;DHT22;28703;44.412;11.918;2023-09-30T11:10:18;23.80;83.20
39315;DHT22;28703;44.412;11.918;2023-09-30T11:12:57;23.90;83.00
39315;DHT22;28703;44.412;11.918;2023-09-30T11:15:23;24.00;82.00
39315;DHT22;28703;44.412;11.918;2023-09-30T11:17:52;24.00;82.40
39315;DHT22;28703;44.412;11.918;2023-09-30T11:20:18;24.10;81.90
39315;DHT22;28703;44.412;11.918;2023-09-30T11:22:46;24.10;81.80
39315;DHT22;28703;44.412;11.918;2023-09-30T11:25:16;24.20;81.90
39315;DHT22;28703;44.412;11.918;2023-09-30T11:27:43;24.30;81.60
39315;DHT22;28703;44.412;11.918;2023-09-30T11:30:10;24.40;81.20
39315;DHT22;28703;44.412;11.918;2023-09-30T11:32:36;24.40;81.40
39315;DHT22;28703;44.412;11.918;2023-09-30T11:35:02;24.50;81.10
39315;DHT22;28703;44.412;11.918;2023-09-30T11:37:32;24.60;81.50
39315;DHT22;28703;44.412;11.918;2023-09-30T11:40:14;24.60;81.30
39315;DHT22;28703;44.412;11.918;2023-09-30T11:42:40;24.60;80.10
39315;DHT22;28703;44.412;11.918;2023-09-30T11:45:22;24.70;81.00
39315;DHT22;28703;44.412;11.918;2023-09-30T11:47:48;24.70;80.70
39315;DHT22;28703;44.412;11.918;2023-09-30T11:50:14;24.80;81.00
39315;DHT22;28703;44.412;11.918;2023-09-30T11:52:44;24.80;80.60
39315;DHT22;28703;44.412;11.918;2023-09-30T11:55:12;24.90;78.40
39315;DHT22;28703;44.412;11.918;2023-09-30T11:57:38;24.90;79.20
39315;DHT22;28703;44.412;11.918;2023-09-30T12:00:04;24.90;79.40
39315;DHT22;28703;44.412;11.918;2023-09-30T12:02:38;25.00;79.60
39315;DHT22;28703;44.412;11.918;2023-09-30T12:05:06;25.10;78.90
39315;DHT22;28703;44.412;11.918;2023-09-30T12:07:38;25.10;78.30
39315;DHT22;28703;44.412;11.918;2023-09-30T12:10:07;25.10;77.90
39315;DHT22;28703;44.412;11.918;2023-09-30T12:12:33;25.20;78.10
39315;DHT22;28703;44.412;11.918;2023-09-30T12:14:59;25.30;77.10
39315;DHT22;28703;44.412;11.918;2023-09-30T12:17:25;25.30;75.90
39315;DHT22;28703;44.412;11.918;2023-09-30T12:19:51;25.40;76.20
39315;DHT22;28703;44.412;11.918;2023-09-30T12:22:16;25.50;76.60
39315;DHT22;28703;44.412;11.918;2023-09-30T12:24:43;25.60;76.60
39315;DHT22;28703;44.412;11.918;2023-09-30T12:27:09;25.70;77.40
39315;DHT22;28703;44.412;11.918;2023-09-30T12:29:54;25.70;76.80
39315;DHT22;28703;44.412;11.918;2023-09-30T12:32:20;25.80;76.50
39315;DHT22;28703;44.412;11.918;2023-09-30T12:34:46;25.90;76.20
39315;DHT22;28703;44.412;11.918;2023-09-30T12:37:12;25.90;76.70
39315;DHT22;28703;44.412;11.918;2023-09-30T12:39:57;26.00;76.80
39315;DHT22;28703;44.412;11.918;2023-09-30T12:42:24;26.00;76.30
39315;DHT22;28703;44.412;11.918;2023-09-30T12:44:50;26.10;76.40
39315;DHT22;28703;44.412;11.918;2023-09-30T12:47:16;26.20;76.70
39315;DHT22;28703;44.412;11.918;2023-09-30T12:50:00;26.30;77.60
39315;DHT22;28703;44.412;11.918;2023-09-30T12:52:26;26.30;76.70
39315;DHT22;28703;44.412;11.918;2023-09-30T12:54:52;26.40;76.30
39315;DHT22;28703;44.412;11.918;2023-09-30T13:00:03;26.50;76.60
39315;DHT22;28703;44.412;11.918;2023-09-30T13:02:48;26.60;76.70
39315;DHT22;28703;44.412;11.918;2023-09-30T13:05:32;26.60;76.00
39315;DHT22;28703;44.412;11.918;2023-09-30T13:07:58;26.70;75.70
39315;DHT22;28703;44.412;11.918;2023-09-30T13:10:24;26.70;76.10
39315;DHT22;28703;44.412;11.918;2023-09-30T13:15:36;26.90;76.10
39315;DHT22;28703;44.412;11.918;2023-09-30T13:18:03;26.90;75.60
39315;DHT22;28703;44.412;11.918;2023-09-30T13:20:30;27.00;75.40
39315;DHT22;28703;44.412;11.918;2023-09-30T13:25:58;27.10;75.00
39315;DHT22;28703;44.412;11.918;2023-09-30T13:28:24;27.20;75.10
39315;DHT22;28703;44.412;11.918;2023-09-30T13:31:08;27.30;75.10
39315;DHT22;28703;44.412;11.918;2023-09-30T13:33:34;27.30;75.10
39315;DHT22;28703;44.412;11.918;2023-09-30T13:36:00;27.30;75.20
39315;DHT22;28703;44.412;11.918;2023-09-30T13:38:27;27.40;74.50
39315;DHT22;28703;44.412;11.918;2023-09-30T13:41:12;27.40;74.00
39315;DHT22;28703;44.412;11.918;2023-09-30T13:43:38;27.50;74.20
39315;DHT22;28703;44.412;11.918;2023-09-30T13:46:42;27.60;74.40
39315;DHT22;28703;44.412;11.918;2023-09-30T13:49:08;27.60;73.30
39315;DHT22;28703;44.412;11.918;2023-09-30T13:51:34;27.70;73.50
39315;DHT22;28703;44.412;11.918;2023-09-30T13:54:18;27.70;73.40
39315;DHT22;28703;44.412;11.918;2023-09-30T13:56:44;27.70;73.70
39315;DHT22;28703;44.412;11.918;2023-09-30T13:59:10;27.90;73.80
39315;DHT22;28703;44.412;11.918;2023-09-30T14:01:36;27.90;73.60
39315;DHT22;28703;44.412;11.918;2023-09-30T14:04:02;27.90;73.50
39315;DHT22;28703;44.412;11.918;2023-09-30T14:06:30;28.00;73.70
39315;DHT22;28703;44.412;11.918;2023-09-30T14:08:57;28.10;73.90
39315;DHT22;28703;44.412;11.918;2023-09-30T14:11:23;28.20;74.10
39315;DHT22;28703;44.412;11.918;2023-09-30T14:13:48;28.20;73.50
39315;DHT22;28703;44.412;11.918;2023-09-30T14:16:14;28.30;73.00
39315;DHT22;28703;44.412;11.918;2023-09-30T14:18:40;28.40;73.20
39315;DHT22;28703;44.412;11.918;2023-09-30T14:21:06;28.40;73.20
39315;DHT22;28703;44.412;11.918;2023-09-30T14:23:32;28.50;73.20
39315;DHT22;28703;44.412;11.918;2023-09-30T14:25:58;28.50;73.20
39315;DHT22;28703;44.412;11.918;2023-09-30T14:28:30;28.60;73.40
39315;DHT22;28703;44.412;11.918;2023-09-30T14:30:56;28.70;73.30
39315;DHT22;28703;44.412;11.918;2023-09-30T14:33:21;28.80;73.40
39315;DHT22;28703;44.412;11.918;2023-09-30T14:35:47;28.80;73.40
39315;DHT22;28703;44.412;11.918;2023-09-30T14:38:13;28.90;73.30
39315;DHT22;28703;44.412;11.918;2023-09-30T14:40:40;29.00;73.00
39315;DHT22;28703;44.412;11.918;2023-09-30T14:45:54;29.10;73.10
39315;DHT22;28703;44.412;11.918;2023-09-30T14:51:05;29.20;73.10
39315;DHT22;28703;44.412;11.918;2023-09-30T14:53:50;29.30;73.30
39315;DHT22;28703;44.412;11.918;2023-09-30T14:56:34;29.40;73.60
39315;DHT22;28703;44.412;11.918;2023-09-30T14:59:00;29.50;72.80
39315;DHT22;28703;44.412;11.918;2023-09-30T15:01:26;29.50;73.40
39315;DHT22;28703;44.412;11.918;2023-09-30T15:03:51;29.60;73.60
39315;DHT22;28703;44.412;11.918;2023-09-30T15:06:17;29.60;73.70
39315;DHT22;28703;44.412;11.918;2023-09-30T15:08:43;29.70;73.50
39315;DHT22;28703;44.412;11.918;2023-09-30T15:11:13;29.80;73.50
39315;DHT22;28703;44.412;11.918;2023-09-30T15:13:42;30.00;73.10
39315;DHT22;28703;44.412;11.918;2023-09-30T15:16:17;30.10;73.00
39315;DHT22;28703;44.412;11.918;2023-09-30T15:18:44;30.40;72.80
39315;DHT22;28703;44.412;11.918;2023-09-30T15:24:51;30.80;72.00
39315;DHT22;28703;44.412;11.918;2023-09-30T15:27:17;31.00;71.80
39315;DHT22;28703;44.412;11.918;2023-09-30T15:29:44;31.30;72.40
39315;DHT22;28703;44.412;11.918;2023-09-30T15:32:11;31.60;72.00
39315;DHT22;28703;44.412;11.918;2023-09-30T15:37:59;32.10;72.30
39315;DHT22;28703;44.412;11.918;2023-09-30T15:41:01;32.50;71.50
39315;DHT22;28703;44.412;11.918;2023-09-30T15:43:45;32.60;71.50
39315;DHT22;28703;44.412;11.918;2023-09-30T15:46:11;32.60;72.30
39315;DHT22;28703;44.412;11.918;2023-09-30T15:48:37;32.70;72.30
39315;DHT22;28703;44.412;11.918;2023-09-30T15:57:09;32.60;71.60
39315;DHT22;28703;44.412;11.918;2023-09-30T15:59:35;32.30;71.50
39315;DHT22;28703;44.412;11.918;2023-09-30T16:02:00;32.10;71.70
39315;DHT22;28703;44.412;11.918;2023-09-30T16:04:26;31.60;71.90
39315;DHT22;28703;44.412;11.918;2023-09-30T16:07:11;31.30;72.30
39315;DHT22;28703;44.412;11.918;2023-09-30T16:09:37;30.80;72.70